Time;durP1;ratioP1;P1;durP2;ratioP2;P2;SDS_P1;SDS_P2;PMS_P1;PMS_P2;Temp;Humidity;BMP_temperature;BMP_pressure;BME280_temperature;BME280_humidity;BME280_pressure;Samples;Min_cycle;Max_cycle;Signal;HPM_P1;HPM_P2
2023/12/19 00:01:25;;;;;;;28.63;15.88;;;9.10;78.50;;;;;;5055668;28;20111;-67
2023/12/19 00:03:52;;;;;;;26.27;16.52;;;9.20;78.70;;;;;;5055645;28;20043;-67
2023/12/19 00:06:18;;;;;;;23.17;14.57;;;9.10;78.70;;;;;;5054365;28;20413;-66
2023/12/19 00:08:43;;;;;;;28.65;16.55;;;9.20;78.80;;;;;;5054719;28;20082;-67
2023/12/19 00:11:09;;;;;;;26.75;15.45;;;9.20;78.80;;;;;;5059252;28;20466;-67
2023/12/19 00:13:35;;;;;;;25.67;15.65;;;9.20;78.90;;;;;;5054227;28;20103;-66
2023/12/19 00:16:03;;;;;;;25.17;14.45;;;9.20;78.90;;;;;;5055270;28;20044;-67
2023/12/19 00:18:30;;;;;;;27.98;15.40;;;9.20;78.90;;;;;;5052990;28;20033;-67
2023/12/19 00:20:56;;;;;;;24.88;15.13;;;9.20;79.00;;;;;;5053951;28;20453;-66
2023/12/19 00:23:22;;;;;;;26.90;14.90;;;9.20;79.00;;;;;;5053559;28;20028;-67
2023/12/19 00:25:48;;;;;;;23.42;14.60;;;9.20;79.00;;;;;;5053975;28;20404;-67
2023/12/19 00:28:14;;;;;;;26.85;15.80;;;9.20;79.10;;;;;;5054545;28;20509;-66
2023/12/19 00:30:40;;;;;;;26.88;15.48;;;9.20;79.10;;;;;;5051164;28;20033;-67
2023/12/19 00:33:05;;;;;;;25.55;14.48;;;9.20;79.20;;;;;;5053656;28;20045;-67
2023/12/19 00:35:33;;;;;;;26.08;14.85;;;9.20;79.20;;;;;;5055028;28;20378;-67
2023/12/19 00:38:02;;;;;;;25.33;15.27;;;9.20;79.90;;;;;;5052824;28;20032;-67
2023/12/19 00:40:27;;;;;;;24.48;14.85;;;9.20;79.30;;;;;;5053792;28;20029;-67
2023/12/19 00:42:53;;;;;;;23.95;15.52;;;9.20;79.40;;;;;;5054869;28;20032;-67
2023/12/19 00:45:19;;;;;;;24.77;15.20;;;9.20;79.40;;;;;;5053868;28;20350;-67
2023/12/19 00:47:45;;;;;;;26.77;15.65;;;9.20;79.50;;;;;;5054362;28;20484;-67
2023/12/19 00:50:15;;;;;;;23.23;14.15;;;9.20;79.60;;;;;;5054564;28;20472;-67
2023/12/19 00:52:41;;;;;;;23.63;15.45;;;9.20;79.60;;;;;;5051392;28;20383;-67
2023/12/19 00:55:07;;;;;;;23.45;14.75;;;9.20;79.50;;;;;;5053573;28;20083;-67
2023/12/19 00:57:33;;;;;;;24.13;14.32;;;9.30;79.70;;;;;;5054467;28;20452;-67
2023/12/19 00:59:58;;;;;;;26.08;14.98;;;9.30;79.70;;;;;;5053758;28;20021;-67
2023/12/19 01:02:24;;;;;;;26.40;15.20;;;9.30;79.80;;;;;;5059134;28;20463;-66
2023/12/19 01:04:50;;;;;;;25.75;14.60;;;9.30;79.70;;;;;;5055681;28;20025;-67
2023/12/19 01:07:16;;;;;;;23.67;14.13;;;9.30;79.80;;;;;;5054313;28;20032;-66
2023/12/19 01:09:42;;;;;;;24.52;14.40;;;9.30;79.90;;;;;;5052229;28;20033;-66
2023/12/19 01:12:08;;;;;;;24.02;13.82;;;9.30;79.90;;;;;;5052063;28;20025;-67
2023/12/19 01:14:33;;;;;;;25.25;14.82;;;9.30;79.90;;;;;;5048279;28;20029;-67
2023/12/19 01:16:59;;;;;;;26.58;14.93;;;9.30;79.90;;;;;;5054074;28;20032;-67
2023/12/19 01:19:25;;;;;;;25.23;15.35;;;9.30;79.90;;;;;;5053058;28;20044;-67
2023/12/19 01:21:50;;;;;;;27.08;13.88;;;9.30;80.60;;;;;;5036239;28;20025;-66
2023/12/19 01:24:16;;;;;;;26.20;15.32;;;9.30;80.00;;;;;;5051534;28;20040;-66
2023/12/19 01:26:43;;;;;;;26.45;14.85;;;9.30;80.00;;;;;;5052988;28;20025;-67
2023/12/19 01:29:08;;;;;;;27.00;15.55;;;9.30;80.10;;;;;;5053857;28;20037;-67
2023/12/19 01:31:36;;;;;;;29.40;17.20;;;9.30;80.20;;;;;;5053755;28;20025;-66
2023/12/19 01:34:01;;;;;;;25.08;14.13;;;9.30;80.20;;;;;;5052869;28;20393;-66
2023/12/19 01:36:27;;;;;;;24.20;15.25;;;9.30;80.20;;;;;;5054366;28;20158;-67
2023/12/19 01:38:53;;;;;;;26.98;14.30;;;9.30;80.30;;;;;;5061482;28;20059;-66
2023/12/19 01:41:19;;;;;;;23.90;15.25;;;9.30;80.30;;;;;;5062631;28;20025;-66
2023/12/19 01:43:45;;;;;;;27.45;14.88;;;9.30;80.30;;;;;;5055458;28;20364;-66
2023/12/19 01:46:15;;;;;;;25.60;15.15;;;9.30;80.30;;;;;;5058016;28;20031;-67
2023/12/19 01:48:41;;;;;;;26.98;15.27;;;9.30;80.30;;;;;;5054167;28;20044;-67
2023/12/19 01:51:08;;;;;;;25.83;15.25;;;9.30;80.30;;;;;;5057736;28;20326;-66
2023/12/19 01:53:35;;;;;;;24.52;14.90;;;9.30;80.20;;;;;;5056936;28;20104;-66
2023/12/19 01:56:02;;;;;;;26.20;15.82;;;9.30;80.30;;;;;;5057991;28;20033;-66
2023/12/19 01:58:29;;;;;;;30.42;15.18;;;9.30;80.40;;;;;;5057792;28;20116;-66
2023/12/19 02:00:55;;;;;;;26.65;15.50;;;9.30;80.40;;;;;;5057637;28;20422;-66
2023/12/19 02:03:21;;;;;;;24.60;14.30;;;9.30;80.40;;;;;;5053429;28;20127;-67
2023/12/19 02:05:51;;;;;;;26.25;15.10;;;9.30;80.50;;;;;;5052004;28;20454;-67
2023/12/19 02:08:18;;;;;;;24.48;14.32;;;9.30;80.40;;;;;;5056619;28;20056;-66
2023/12/19 02:10:43;;;;;;;24.17;13.80;;;9.30;80.50;;;;;;5056024;28;20025;-66
2023/12/19 02:13:10;;;;;;;24.38;14.13;;;9.30;80.50;;;;;;5056980;28;20524;-66
2023/12/19 02:15:35;;;;;;;23.23;14.55;;;9.30;80.50;;;;;;5058981;28;20055;-66
2023/12/19 02:18:18;;;;;;;23.05;14.00;;;9.30;80.50;;;;;;5051993;28;20029;-66
2023/12/19 02:20:44;;;;;;;24.30;14.82;;;9.40;80.50;;;;;;5056354;28;20044;-66
2023/12/19 02:23:11;;;;;;;23.15;14.07;;;9.30;80.50;;;;;;5055355;28;20033;-66
2023/12/19 02:25:38;;;;;;;23.58;13.90;;;9.30;80.60;;;;;;5056656;28;20033;-66
2023/12/19 02:28:04;;;;;;;24.85;15.15;;;9.30;80.70;;;;;;5056669;28;20040;-66
2023/12/19 02:30:30;;;;;;;23.27;13.32;;;9.30;80.70;;;;;;5057304;28;20021;-66
2023/12/19 02:32:58;;;;;;;23.67;15.07;;;9.30;80.70;;;;;;5054982;28;20041;-66
2023/12/19 02:35:24;;;;;;;24.15;14.27;;;9.30;80.70;;;;;;5055826;28;20036;-66
2023/12/19 02:37:50;;;;;;;25.25;14.73;;;9.30;80.70;;;;;;5053037;28;20029;-67
2023/12/19 02:40:16;;;;;;;24.48;14.27;;;9.30;80.80;;;;;;5051540;28;20357;-67
2023/12/19 02:42:42;;;;;;;23.02;14.20;;;9.30;80.90;;;;;;5054371;28;20040;-67
2023/12/19 02:45:11;;;;;;;25.65;13.90;;;9.30;81.50;;;;;;5056770;28;20389;-66
2023/12/19 02:47:38;;;;;;;26.23;14.60;;;9.30;81.00;;;;;;5039352;28;20033;-66
2023/12/19 02:50:04;;;;;;;24.30;14.45;;;9.30;81.00;;;;;;5055504;28;20486;-66
2023/12/19 02:52:30;;;;;;;24.88;14.52;;;9.30;81.00;;;;;;5055168;28;20021;-66
2023/12/19 02:54:56;;;;;;;25.23;14.15;;;9.30;81.00;;;;;;5054951;28;20397;-66
2023/12/19 02:57:21;;;;;;;22.27;13.73;;;9.40;81.00;;;;;;5056838;28;20017;-66
2023/12/19 02:59:47;;;;;;;25.30;15.30;;;9.40;81.10;;;;;;5039340;28;20362;-66
2023/12/19 03:02:13;;;;;;;22.02;14.23;;;9.40;81.10;;;;;;5055543;28;20124;-66
2023/12/19 03:04:39;;;;;;;27.77;14.45;;;9.40;81.10;;;;;;5054846;28;20029;-66
2023/12/19 03:07:05;;;;;;;25.83;15.73;;;9.40;81.10;;;;;;5055888;28;20425;-66
2023/12/19 03:09:30;;;;;;;23.02;14.80;;;9.40;81.20;;;;;;5055393;28;20100;-66
2023/12/19 03:12:05;;;;;;;23.98;14.20;;;9.30;81.20;;;;;;5055439;28;20444;-67
2023/12/19 03:14:31;;;;;;;23.45;13.73;;;9.30;81.30;;;;;;5037498;28;20048;-66
2023/12/19 03:16:58;;;;;;;23.88;14.10;;;9.30;81.30;;;;;;5047377;28;20043;-66
2023/12/19 03:19:23;;;;;;;22.23;13.82;;;9.30;81.30;;;;;;5055603;28;20032;-66
2023/12/19 03:21:49;;;;;;;24.73;14.48;;;9.30;81.20;;;;;;5055881;28;20104;-66
2023/12/19 03:24:15;;;;;;;28.48;13.65;;;9.40;81.20;;;;;;5053871;28;20114;-66
2023/12/19 03:26:40;;;;;;;25.83;14.50;;;9.40;81.20;;;;;;5061133;28;20033;-67
2023/12/19 03:29:06;;;;;;;25.58;15.27;;;9.40;81.30;;;;;;5054604;28;20033;-66
2023/12/19 03:31:32;;;;;;;25.33;14.77;;;9.40;81.30;;;;;;5054841;28;20078;-66
2023/12/19 03:33:57;;;;;;;25.52;15.43;;;9.40;81.40;;;;;;5035579;28;20064;-66
2023/12/19 03:36:23;;;;;;;24.13;13.77;;;9.30;81.40;;;;;;5056067;28;20112;-66
2023/12/19 03:38:49;;;;;;;24.10;14.52;;;9.40;81.40;;;;;;5036969;28;20116;-66
2023/12/19 03:41:15;;;;;;;25.00;15.05;;;9.40;81.40;;;;;;5054760;28;20058;-66
2023/12/19 03:43:41;;;;;;;24.20;14.98;;;9.40;81.40;;;;;;5037798;28;20033;-66
2023/12/19 03:46:07;;;;;;;25.45;15.35;;;9.40;81.40;;;;;;5054656;28;20029;-66
2023/12/19 03:48:36;;;;;;;29.45;15.75;;;9.40;81.30;;;;;;5055151;28;20195;-66
2023/12/19 03:51:03;;;;;;;25.30;15.43;;;9.40;81.40;;;;;;5054114;28;20025;-66
2023/12/19 03:53:29;;;;;;;24.60;14.63;;;9.40;81.50;;;;;;5053311;28;20029;-67
2023/12/19 03:55:55;;;;;;;24.00;14.63;;;9.40;81.50;;;;;;5047049;28;20094;-66
2023/12/19 03:58:20;;;;;;;23.98;14.05;;;9.40;81.50;;;;;;5055029;28;20354;-66
2023/12/19 04:00:46;;;;;;;24.35;13.98;;;9.40;81.50;;;;;;5054155;28;20028;-66
2023/12/19 04:03:12;;;;;;;23.50;13.85;;;9.40;81.50;;;;;;5054936;28;20415;-66
2023/12/19 04:05:38;;;;;;;21.15;12.90;;;9.40;81.50;;;;;;5053146;28;20037;-67
2023/12/19 04:08:04;;;;;;;23.17;13.35;;;9.40;81.50;;;;;;5054482;28;20453;-66
2023/12/19 04:10:30;;;;;;;24.35;13.27;;;9.40;81.50;;;;;;5049859;28;20064;-66
2023/12/19 04:12:55;;;;;;;21.77;12.85;;;9.40;81.50;;;;;;5052630;28;20044;-66
2023/12/19 04:15:22;;;;;;;20.45;11.95;;;9.40;81.50;;;;;;5054791;28;20100;-66
2023/12/19 04:17:47;;;;;;;21.33;12.75;;;9.40;81.50;;;;;;5054891;28;20033;-67
2023/12/19 04:20:13;;;;;;;18.95;12.13;;;9.40;81.50;;;;;;5054355;28;20179;-66
2023/12/19 04:22:39;;;;;;;18.92;11.82;;;9.40;81.50;;;;;;5052961;28;20016;-66
2023/12/19 04:25:05;;;;;;;18.75;11.70;;;9.40;81.50;;;;;;5060185;28;20121;-67
2023/12/19 04:27:31;;;;;;;19.40;12.25;;;9.40;81.60;;;;;;5054894;28;20094;-66
2023/12/19 04:29:57;;;;;;;20.83;11.18;;;9.40;81.60;;;;;;5053129;28;20078;-66
2023/12/19 04:32:23;;;;;;;20.73;11.60;;;9.40;81.70;;;;;;5050154;28;20069;-66
2023/12/19 04:34:49;;;;;;;19.67;13.07;;;9.40;81.70;;;;;;5037064;28;20032;-66
2023/12/19 04:37:14;;;;;;;21.08;12.07;;;9.40;81.70;;;;;;5041941;28;20357;-66
2023/12/19 04:39:40;;;;;;;18.77;11.48;;;9.40;81.70;;;;;;5038903;28;20029;-66
2023/12/19 04:42:07;;;;;;;18.20;11.48;;;9.40;81.70;;;;;;5021789;28;20024;-67
2023/12/19 04:44:34;;;;;;;16.42;10.15;;;9.40;81.70;;;;;;5039300;28;20041;-66
2023/12/19 04:46:59;;;;;;;16.90;10.95;;;9.40;81.80;;;;;;5037899;28;20029;-66
2023/12/19 04:49:25;;;;;;;16.90;10.65;;;9.40;81.80;;;;;;5037777;28;20042;-66
2023/12/19 04:51:54;;;;;;;18.45;11.30;;;9.40;81.80;;;;;;5033301;28;20031;-66
2023/12/19 04:54:20;;;;;;;15.82;10.23;;;9.40;81.90;;;;;;5024029;28;20396;-67
2023/12/19 04:56:46;;;;;;;16.05;10.07;;;9.40;81.90;;;;;;5037742;28;20033;-67
2023/12/19 04:59:11;;;;;;;16.00;9.65;;;9.40;81.90;;;;;;5037724;28;20058;-67
2023/12/19 05:01:40;;;;;;;16.25;9.40;;;9.40;81.90;;;;;;5037779;28;20037;-67
2023/12/19 05:04:06;;;;;;;15.23;8.93;;;9.40;82.00;;;;;;5039193;28;20033;-66
2023/12/19 05:06:33;;;;;;;12.95;7.88;;;9.40;81.90;;;;;;5037934;28;20061;-66
2023/12/19 05:08:59;;;;;;;13.40;7.47;;;9.50;82.00;;;;;;5037083;28;20026;-66
2023/12/19 05:11:25;;;;;;;14.70;8.15;;;9.50;81.90;;;;;;5045650;28;20052;-66
2023/12/19 05:13:51;;;;;;;14.10;8.15;;;9.40;81.90;;;;;;5042974;28;20039;-66
2023/12/19 05:16:18;;;;;;;12.65;7.70;;;9.40;82.00;;;;;;5037341;28;20029;-66
2023/12/19 05:18:45;;;;;;;12.90;7.60;;;9.50;82.00;;;;;;5040397;28;20033;-66
2023/12/19 05:21:11;;;;;;;12.57;7.65;;;9.50;82.00;;;;;;5036813;28;20036;-66
2023/12/19 05:23:39;;;;;;;13.00;7.30;;;9.50;82.10;;;;;;5046126;28;20100;-66
2023/12/19 05:26:06;;;;;;;13.52;8.02;;;9.50;82.10;;;;;;5034669;28;20033;-66
2023/12/19 05:28:34;;;;;;;13.43;7.68;;;9.50;82.20;;;;;;5038712;28;20661;-66
2023/12/19 05:31:00;;;;;;;12.57;7.65;;;9.50;82.20;;;;;;5039932;28;20033;-66
2023/12/19 05:33:30;;;;;;;14.00;8.02;;;9.50;82.20;;;;;;5042449;28;20045;-66
2023/12/19 05:35:56;;;;;;;12.98;7.78;;;9.50;82.30;;;;;;5036646;28;20481;-66
2023/12/19 05:38:22;;;;;;;13.63;8.57;;;9.50;82.20;;;;;;5044599;28;20058;-66
2023/12/19 05:40:48;;;;;;;13.75;8.07;;;9.50;82.20;;;;;;5053502;28;20036;-67
2023/12/19 05:43:14;;;;;;;14.20;7.90;;;9.50;82.20;;;;;;5051810;28;20089;-66
2023/12/19 05:45:41;;;;;;;14.25;8.82;;;9.60;82.20;;;;;;5053198;28;20442;-66
2023/12/19 05:48:07;;;;;;;14.48;8.73;;;9.60;82.20;;;;;;5052594;28;20036;-66
2023/12/19 05:50:33;;;;;;;13.60;8.65;;;9.60;82.30;;;;;;5055428;28;20338;-66
2023/12/19 05:52:59;;;;;;;14.43;8.90;;;9.60;82.30;;;;;;5053213;28;20027;-67
2023/12/19 05:55:25;;;;;;;16.30;8.75;;;9.60;82.30;;;;;;5050676;28;20438;-67
2023/12/19 05:57:51;;;;;;;14.00;8.77;;;9.50;82.30;;;;;;5053183;28;20024;-67
2023/12/19 06:00:20;;;;;;;14.75;9.13;;;9.60;82.40;;;;;;5053052;28;20032;-67
2023/12/19 06:02:48;;;;;;;14.90;9.25;;;9.60;82.50;;;;;;5052852;28;20029;-67
2023/12/19 06:05:13;;;;;;;16.88;9.70;;;9.60;82.40;;;;;;5050117;28;20048;-67
2023/12/19 06:07:41;;;;;;;16.98;9.98;;;9.60;82.50;;;;;;5053552;28;20025;-67
2023/12/19 06:10:12;;;;;;;15.48;9.80;;;9.60;82.60;;;;;;5054770;28;20491;-66
2023/12/19 06:12:38;;;;;;;14.73;9.20;;;9.60;82.70;;;;;;5053935;28;20108;-67
2023/12/19 06:15:12;;;;;;;18.80;11.57;;;9.60;82.70;;;;;;5051336;28;20028;-66
2023/12/19 06:17:42;;;;;;;15.80;10.02;;;9.60;82.70;;;;;;5051879;28;20100;-66
2023/12/19 06:20:11;;;;;;;15.57;9.85;;;9.60;82.70;;;;;;5053449;28;20021;-66
2023/12/19 06:22:43;;;;;;;17.73;10.63;;;9.60;82.70;;;;;;5052419;28;20037;-66
2023/12/19 06:25:09;;;;;;;18.08;11.50;;;9.60;82.70;;;;;;5050410;28;20033;-66
2023/12/19 06:27:36;;;;;;;15.77;9.30;;;9.60;82.80;;;;;;5054516;28;20416;-66
2023/12/19 06:30:03;;;;;;;14.38;10.02;;;9.70;82.90;;;;;;5055432;28;20020;-66
2023/12/19 06:32:29;;;;;;;14.57;9.68;;;9.70;82.90;;;;;;5056269;28;20045;-66
2023/12/19 06:34:55;;;;;;;15.77;9.88;;;9.70;82.90;;;;;;5055620;28;20033;-66
2023/12/19 06:37:21;;;;;;;16.30;10.07;;;9.70;82.90;;;;;;5055299;28;20025;-66
2023/12/19 06:39:46;;;;;;;16.67;10.45;;;9.70;82.90;;;;;;5055386;28;20377;-66
2023/12/19 06:42:12;;;;;;;16.10;10.15;;;9.70;82.90;;;;;;5056032;28;20111;-66
2023/12/19 06:44:38;;;;;;;14.95;9.77;;;9.70;82.90;;;;;;5055163;28;20040;-66
2023/12/19 06:47:04;;;;;;;15.07;10.02;;;9.70;82.90;;;;;;5055135;28;20353;-66
2023/12/19 06:49:30;;;;;;;15.52;9.88;;;9.70;82.90;;;;;;5055263;28;20091;-66
2023/12/19 06:51:56;;;;;;;15.20;9.98;;;9.70;83.00;;;;;;5038500;28;20020;-66
2023/12/19 06:54:22;;;;;;;17.00;11.07;;;9.70;83.00;;;;;;5055141;28;20037;-66
2023/12/19 06:56:48;;;;;;;17.38;11.20;;;9.70;83.00;;;;;;5052463;28;20021;-67
2023/12/19 06:59:14;;;;;;;18.15;11.95;;;9.70;83.80;;;;;;5055189;28;20051;-67
2023/12/19 07:01:40;;;;;;;16.98;10.73;;;9.70;83.20;;;;;;5055649;28;20025;-65
2023/12/19 07:04:06;;;;;;;16.40;10.50;;;9.70;83.20;;;;;;5054755;28;20468;-65
2023/12/19 07:06:31;;;;;;;17.58;10.30;;;9.70;83.20;;;;;;5053284;28;20087;-66
2023/12/19 07:08:57;;;;;;;15.65;10.40;;;9.70;83.20;;;;;;5053124;28;20053;-66
2023/12/19 07:11:24;;;;;;;18.63;11.07;;;9.80;83.20;;;;;;5055104;28;20021;-66
2023/12/19 07:13:50;;;;;;;16.75;10.90;;;9.70;83.10;;;;;;5053587;28;20049;-66
2023/12/19 07:16:18;;;;;;;17.60;11.55;;;9.80;83.20;;;;;;5053641;28;20100;-66
2023/12/19 07:18:45;;;;;;;18.92;10.85;;;9.70;83.20;;;;;;5052356;28;20040;-66
2023/12/19 07:21:21;;;;;;;17.90;12.23;;;9.70;83.30;;;;;;5053330;28;20024;-65
2023/12/19 07:23:48;;;;;;;17.83;12.52;;;9.70;83.30;;;;;;5051383;28;20389;-66
2023/12/19 07:26:26;;;;;;;18.73;11.75;;;9.70;83.20;;;;;;5055327;28;20047;-66
2023/12/19 07:28:53;;;;;;;17.35;11.23;;;9.70;83.20;;;;;;5055511;28;20033;-65
2023/12/19 07:31:20;;;;;;;19.73;11.82;;;9.80;83.30;;;;;;5055522;28;20387;-66
2023/12/19 07:33:46;;;;;;;20.38;12.25;;;9.70;83.30;;;;;;5051514;28;20098;-66
2023/12/19 07:36:13;;;;;;;18.17;12.15;;;9.70;83.30;;;;;;5054710;28;20126;-66
2023/12/19 07:38:39;;;;;;;18.08;12.00;;;9.70;83.30;;;;;;5053500;28;20049;-66
2023/12/19 07:41:04;;;;;;;19.95;12.60;;;9.70;83.40;;;;;;5053645;28;20051;-65
2023/12/19 07:43:32;;;;;;;21.17;13.88;;;9.70;83.40;;;;;;5050615;28;20069;-66
2023/12/19 07:45:58;;;;;;;20.13;12.48;;;9.80;83.50;;;;;;5050706;28;20349;-66
2023/12/19 07:48:24;;;;;;;22.23;14.50;;;9.70;83.40;;;;;;5036557;28;20028;-65
2023/12/19 07:50:50;;;;;;;26.98;15.98;;;9.80;83.50;;;;;;5054606;28;20111;-66
2023/12/19 07:53:15;;;;;;;23.25;15.02;;;9.70;83.40;;;;;;5053832;28;20049;-66
2023/12/19 07:55:41;;;;;;;24.05;14.52;;;9.80;83.60;;;;;;5052487;28;20048;-67
2023/12/19 07:58:07;;;;;;;23.92;15.40;;;9.80;83.60;;;;;;5054808;28;20430;-67
2023/12/19 08:00:33;;;;;;;24.13;15.43;;;9.80;83.70;;;;;;5053773;28;20572;-66
2023/12/19 08:02:59;;;;;;;23.25;15.27;;;9.80;83.70;;;;;;5052154;28;20021;-66
2023/12/19 08:05:24;;;;;;;25.33;16.27;;;9.80;83.70;;;;;;5052676;28;20341;-68
2023/12/19 08:07:50;;;;;;;23.70;15.10;;;9.80;83.70;;;;;;5052661;28;20112;-66
2023/12/19 08:10:16;;;;;;;25.23;15.32;;;9.80;83.70;;;;;;5061051;28;20032;-66
2023/12/19 08:12:42;;;;;;;22.48;15.88;;;9.80;83.70;;;;;;5061541;28;20539;-66
2023/12/19 08:15:10;;;;;;;23.65;15.07;;;9.90;83.70;;;;;;5053736;28;20021;-66
2023/12/19 08:17:37;;;;;;;22.95;14.68;;;9.90;83.70;;;;;;5052804;28;20357;-67
2023/12/19 08:20:05;;;;;;;25.88;15.90;;;9.90;83.80;;;;;;5048056;28;20374;-67
2023/12/19 08:22:30;;;;;;;25.85;15.90;;;9.90;83.80;;;;;;5053813;28;20029;-67
2023/12/19 08:24:56;;;;;;;25.02;15.80;;;9.90;83.80;;;;;;5053803;28;20473;-67
2023/12/19 08:27:26;;;;;;;26.40;15.75;;;9.90;83.80;;;;;;5053203;28;20029;-67
2023/12/19 08:29:52;;;;;;;22.30;14.65;;;9.90;83.80;;;;;;5054166;28;20033;-68
2023/12/19 08:32:18;;;;;;;25.52;16.02;;;9.90;83.80;;;;;;5053169;28;20060;-68
2023/12/19 08:34:43;;;;;;;22.70;14.65;;;9.90;84.50;;;;;;5054453;28;20029;-68
2023/12/19 08:37:09;;;;;;;23.35;15.95;;;9.90;83.80;;;;;;5051795;28;20033;-68
2023/12/19 08:39:35;;;;;;;25.02;15.32;;;9.90;83.90;;;;;;5054230;28;20017;-68
2023/12/19 08:42:00;;;;;;;23.17;15.02;;;9.90;83.90;;;;;;5054015;28;20484;-67
2023/12/19 08:44:29;;;;;;;23.23;15.13;;;9.90;83.90;;;;;;5053042;28;20025;-67
2023/12/19 08:46:55;;;;;;;24.08;14.88;;;10.00;84.00;;;;;;5053050;28;20067;-67
2023/12/19 08:49:21;;;;;;;21.05;14.73;;;10.00;84.00;;;;;;5052787;28;20049;-67
2023/12/19 08:51:47;;;;;;;22.83;15.38;;;10.00;84.00;;;;;;5053027;28;20127;-68
2023/12/19 08:54:14;;;;;;;23.52;14.30;;;10.00;84.00;;;;;;5052854;28;20450;-67
2023/12/19 08:56:41;;;;;;;24.25;15.23;;;10.00;84.00;;;;;;5052732;28;20092;-67
2023/12/19 08:59:07;;;;;;;20.38;14.57;;;10.00;84.00;;;;;;5053770;28;20029;-67
2023/12/19 09:01:33;;;;;;;18.92;13.60;;;10.00;84.10;;;;;;5052642;28;20108;-67
2023/12/19 09:04:00;;;;;;;20.48;13.77;;;10.00;84.10;;;;;;5053662;28;20423;-68
2023/12/19 09:06:27;;;;;;;22.08;14.88;;;10.00;84.10;;;;;;5053608;28;20449;-68
2023/12/19 09:08:53;;;;;;;19.35;12.93;;;10.00;84.20;;;;;;5052739;28;20037;-67
2023/12/19 09:11:18;;;;;;;20.88;14.10;;;10.10;84.20;;;;;;5053408;28;20035;-67
2023/12/19 09:13:44;;;;;;;20.30;12.70;;;10.10;84.20;;;;;;5053080;28;20029;-67
2023/12/19 09:16:10;;;;;;;19.58;12.80;;;10.10;84.10;;;;;;5053589;28;20078;-67
2023/12/19 09:18:36;;;;;;;18.80;12.52;;;10.10;84.10;;;;;;5049839;28;20025;-66
2023/12/19 09:21:02;;;;;;;22.38;13.05;;;10.10;84.10;;;;;;5052690;28;20024;-67
2023/12/19 09:23:27;;;;;;;18.08;12.60;;;10.10;84.20;;;;;;5051625;28;20357;-66
2023/12/19 09:25:53;;;;;;;16.83;11.30;;;10.10;84.20;;;;;;5051691;28;20044;-67
2023/12/19 09:28:19;;;;;;;17.48;11.27;;;10.10;84.20;;;;;;5051562;28;20086;-66
2023/12/19 09:30:45;;;;;;;16.42;10.60;;;10.10;84.20;;;;;;5046276;28;20021;-64
2023/12/19 09:33:10;;;;;;;15.18;10.48;;;10.10;84.20;;;;;;5045700;28;20299;-66
2023/12/19 09:35:36;;;;;;;13.00;9.15;;;10.10;84.30;;;;;;5051771;28;21218;-65
2023/12/19 09:38:04;;;;;;;13.52;8.48;;;10.10;84.20;;;;;;5050505;28;20033;-66
2023/12/19 09:40:30;;;;;;;13.43;8.70;;;10.10;84.20;;;;;;5048632;28;20137;-66
2023/12/19 09:42:58;;;;;;;13.25;8.68;;;10.10;84.30;;;;;;5049879;28;20343;-66
2023/12/19 09:45:24;;;;;;;14.88;9.35;;;10.10;84.20;;;;;;5051259;28;20104;-65
2023/12/19 09:47:59;;;;;;;12.27;8.32;;;10.10;84.20;;;;;;5051338;28;20029;-65
2023/12/19 09:50:27;;;;;;;12.98;8.52;;;10.10;84.20;;;;;;5052438;28;20075;-66
2023/12/19 09:52:59;;;;;;;12.15;8.32;;;10.20;84.20;;;;;;5052646;28;20158;-66
2023/12/19 09:55:29;;;;;;;13.15;8.48;;;10.10;84.20;;;;;;5053392;28;20111;-66
2023/12/19 09:57:56;;;;;;;13.73;7.80;;;10.10;84.20;;;;;;5053826;28;20032;-66
2023/12/19 10:00:25;;;;;;;12.98;8.13;;;10.20;84.20;;;;;;5052546;28;20074;-66
2023/12/19 10:02:52;;;;;;;11.27;7.43;;;10.20;84.20;;;;;;5052998;28;20075;-66
2023/12/19 10:05:18;;;;;;;12.98;8.00;;;10.20;84.20;;;;;;5057771;28;20450;-66
2023/12/19 10:07:44;;;;;;;12.25;8.13;;;10.10;84.20;;;;;;5057046;28;20036;-66
2023/12/19 10:10:11;;;;;;;13.63;8.32;;;10.20;84.20;;;;;;5056674;28;20044;-66
2023/12/19 10:12:57;;;;;;;15.10;9.23;;;10.10;84.20;;;;;;5051640;28;20021;-66
2023/12/19 10:15:25;;;;;;;13.80;8.63;;;10.20;84.30;;;;;;5055219;28;20031;-66
2023/12/19 10:18:11;;;;;;;14.32;9.27;;;10.20;84.30;;;;;;5056274;28;20397;-65
2023/12/19 10:20:38;;;;;;;12.82;8.23;;;10.20;84.20;;;;;;5055056;28;20043;-65
2023/12/19 10:23:06;;;;;;;12.13;7.85;;;10.10;84.20;;;;;;5053596;28;20033;-66
2023/12/19 10:25:33;;;;;;;13.32;8.18;;;10.20;84.30;;;;;;5057318;28;20021;-65
2023/12/19 10:28:08;;;;;;;13.80;8.63;;;10.10;84.30;;;;;;5057460;28;20087;-65
2023/12/19 10:30:37;;;;;;;14.40;8.60;;;10.10;84.30;;;;;;5043435;28;20040;-66
2023/12/19 10:33:04;;;;;;;13.27;8.13;;;10.10;84.40;;;;;;5053192;28;20048;-65
2023/12/19 10:35:40;;;;;;;11.27;7.55;;;10.10;84.40;;;;;;5056780;28;20031;-66
2023/12/19 10:38:06;;;;;;;11.80;8.02;;;10.10;84.40;;;;;;5056631;28;20052;-66
2023/12/19 10:40:32;;;;;;;12.77;7.97;;;10.20;84.40;;;;;;5056664;28;20051;-66
2023/12/19 10:43:02;;;;;;;12.07;8.23;;;10.20;84.40;;;;;;5055836;28;20029;-66
2023/12/19 10:45:28;;;;;;;12.15;8.05;;;10.20;84.40;;;;;;5053282;28;20048;-64
2023/12/19 10:47:54;;;;;;;13.65;8.32;;;10.20;84.40;;;;;;5054783;28;20108;-65
2023/12/19 10:50:21;;;;;;;12.40;8.73;;;10.20;84.30;;;;;;5056323;28;20067;-66
2023/12/19 10:52:50;;;;;;;12.65;8.40;;;10.20;84.30;;;;;;5054338;28;20040;-66
2023/12/19 10:55:20;;;;;;;13.93;8.02;;;10.20;84.20;;;;;;5055506;28;20306;-65
2023/12/19 10:57:48;;;;;;;13.65;8.23;;;10.20;84.20;;;;;;5054055;28;20091;-66
2023/12/19 11:00:21;;;;;;;13.32;8.35;;;10.20;84.20;;;;;;5053843;28;20033;-65
2023/12/19 11:02:53;;;;;;;13.10;8.02;;;10.20;84.20;;;;;;5055327;28;20025;-65
2023/12/19 11:05:33;;;;;;;12.65;8.45;;;10.20;84.30;;;;;;5056657;28;20044;-66
2023/12/19 11:08:08;;;;;;;13.65;8.25;;;10.30;84.30;;;;;;5056270;28;20053;-66
2023/12/19 11:10:39;;;;;;;12.35;7.55;;;10.20;84.30;;;;;;5054347;28;20033;-65
2023/12/19 11:13:05;;;;;;;12.50;7.87;;;10.20;84.40;;;;;;5053611;28;20028;-66
2023/12/19 11:15:34;;;;;;;12.77;7.72;;;10.20;84.40;;;;;;5058404;28;20055;-66
2023/12/19 11:18:32;;;;;;;11.98;7.40;;;10.20;84.40;;;;;;5065832;28;20085;-66
2023/12/19 11:21:11;;;;;;;10.75;7.35;;;10.20;84.40;;;;;;5062209;28;20433;-66
2023/12/19 11:23:40;;;;;;;11.20;7.13;;;10.20;84.50;;;;;;5062607;28;20041;-66
2023/12/19 11:26:41;;;;;;;11.40;7.20;;;10.20;84.40;;;;;;5058486;28;21545;-66
2023/12/19 11:29:07;;;;;;;11.07;7.05;;;10.20;84.40;;;;;;5055592;28;20021;-66
2023/12/19 11:31:35;;;;;;;11.27;6.80;;;10.20;84.60;;;;;;5057372;28;20028;-65
2023/12/19 11:34:23;;;;;;;12.65;6.82;;;10.20;84.40;;;;;;5056394;28;20053;-66
2023/12/19 11:37:04;;;;;;;11.10;7.15;;;10.30;84.40;;;;;;5039376;28;20033;-66
2023/12/19 11:39:31;;;;;;;10.20;6.45;;;10.30;84.40;;;;;;5065808;28;20405;-65
2023/12/19 11:41:57;;;;;;;11.23;6.97;;;10.30;84.40;;;;;;5054188;28;20361;-66
2023/12/19 11:44:52;;;;;;;15.60;7.72;;;10.20;84.50;;;;;;5059110;28;20037;-66
2023/12/19 11:47:19;;;;;;;11.75;6.80;;;10.20;84.40;;;;;;5061646;28;20062;-66
2023/12/19 11:49:45;;;;;;;11.63;6.68;;;10.20;84.50;;;;;;5069883;28;20082;-67
2023/12/19 11:52:36;;;;;;;11.32;6.95;;;10.30;84.50;;;;;;5064886;28;20043;-67
2023/12/19 11:55:05;;;;;;;10.55;6.30;;;10.30;84.40;;;;;;5045677;28;20051;-67
2023/12/19 11:57:32;;;;;;;12.02;7.07;;;10.30;84.40;;;;;;5055461;28;20442;-67
2023/12/19 12:00:00;;;;;;;11.13;7.22;;;10.30;84.50;;;;;;5066681;28;20032;-67
2023/12/19 12:02:34;;;;;;;10.75;6.03;;;10.30;84.50;;;;;;5063549;28;20491;-67
2023/12/19 12:05:03;;;;;;;11.55;6.63;;;10.30;84.50;;;;;;5073916;28;20028;-67
2023/12/19 12:07:29;;;;;;;10.85;6.15;;;10.30;84.50;;;;;;5056142;28;20033;-68
2023/12/19 12:10:06;;;;;;;9.50;5.80;;;10.30;84.40;;;;;;5066792;28;20048;-67
2023/12/19 12:12:36;;;;;;;8.57;5.65;;;10.30;84.50;;;;;;5061115;28;20458;-67
2023/12/19 12:15:20;;;;;;;9.82;6.00;;;10.40;84.60;;;;;;5066647;28;20480;-67
2023/12/19 12:17:47;;;;;;;10.00;5.82;;;10.30;84.50;;;;;;5065038;28;20039;-67
2023/12/19 12:20:14;;;;;;;10.20;6.20;;;10.30;84.50;;;;;;5047929;28;20025;-67
2023/12/19 12:22:40;;;;;;;9.13;5.50;;;10.30;84.50;;;;;;5062693;28;20111;-67
2023/12/19 12:25:09;;;;;;;10.05;6.05;;;10.30;84.60;;;;;;5074937;28;20455;-66
2023/12/19 12:27:34;;;;;;;10.50;6.35;;;10.40;84.60;;;;;;5070893;28;20039;-66
2023/12/19 12:30:00;;;;;;;8.90;5.22;;;10.40;84.60;;;;;;5058841;28;20037;-67
2023/12/19 12:32:26;;;;;;;9.38;5.88;;;10.40;84.50;;;;;;5067253;28;20099;-66
2023/12/19 12:34:53;;;;;;;9.30;5.38;;;10.40;84.50;;;;;;5053745;28;20040;-66
2023/12/19 12:37:19;;;;;;;8.90;5.20;;;10.40;84.50;;;;;;5054933;28;21400;-67
2023/12/19 12:39:46;;;;;;;9.23;5.57;;;10.40;84.50;;;;;;5054649;28;20029;-67